Uzice, Serbia
Current Conditions -  °F | °C
As of 10:30 AM on Friday 19 Dec 2014 (Local Time) from LYUZ Reporting Station
Few Clouds Few Clouds  
Wind Chill:   Ceiling: Unl
Heat Index:   Visibility: 6mi
Dew Point:   Wind: 5mph
Humidity: 93%   Direction: 220°SW
Pressure: 30.18"   Gusts: NA
Location:  43.85°N, 19.85°E
Report Text: LYUZ 190830Z 22004KT 180V280 9999 FEW010 03/02 Q1022
Loading
Personal Weather Stations






























Interactive Weather Map New forecast layout! Learn more

10-Day Weather Forecast

Advertisements
Track Severe Weather on mobile